Open Full Screen Window  High Contrast Mode
April 28, 2015 2:46 AM EDT
Weather Information
Wind Direction
  ---
Wind Speed
  00 kt (0 mph)
Wind Gust
  00 kt (0 mph)
Altimeter
30.04 in
Visibility
10 SM
Temperature
04° C
39° F
Dewpoint
01° C
34° F
Humidity
81%
1hr Rain Fall
00.00 in.
24hr Rain Fall
00.00 in.
Sky Condition
Overcast @ 5,500 ft
VFR

METAR KPOV 280646Z AUTO 00000KT 10SM OVC055 04/01 A3004 RMK AO2 T00380009

*Background is not an actual portrayal of the airport.